sensor_id;sensor_type;location;lat;lon;timestamp;temperature;humidity
2839;DHT22;1427;48.510;9.060;2023-07-20T00:02:25;20.50;91.70
2839;DHT22;1427;48.510;9.060;2023-07-20T00:04:53;20.50;91.70
2839;DHT22;1427;48.510;9.060;2023-07-20T00:07:21;20.50;91.50
2839;DHT22;1427;48.510;9.060;2023-07-20T00:09:51;20.60;91.80
2839;DHT22;1427;48.510;9.060;2023-07-20T00:12:20;20.50;92.20
2839;DHT22;1427;48.510;9.060;2023-07-20T00:14:48;20.50;92.60
2839;DHT22;1427;48.510;9.060;2023-07-20T00:17:20;20.50;92.80
2839;DHT22;1427;48.510;9.060;2023-07-20T00:19:48;20.40;93.00
2839;DHT22;1427;48.510;9.060;2023-07-20T00:22:16;20.40;93.70
2839;DHT22;1427;48.510;9.060;2023-07-20T00:24:44;20.40;93.90
2839;DHT22;1427;48.510;9.060;2023-07-20T00:27:12;20.30;94.00
2839;DHT22;1427;48.510;9.060;2023-07-20T00:29:42;20.30;94.20
2839;DHT22;1427;48.510;9.060;2023-07-20T00:32:10;20.20;94.30
2839;DHT22;1427;48.510;9.060;2023-07-20T00:34:38;20.20;94.30
2839;DHT22;1427;48.510;9.060;2023-07-20T00:37:06;20.20;94.10
2839;DHT22;1427;48.510;9.060;2023-07-20T00:39:34;20.20;94.10
2839;DHT22;1427;48.510;9.060;2023-07-20T00:42:03;20.10;93.70
2839;DHT22;1427;48.510;9.060;2023-07-20T00:44:31;20.10;93.80
2839;DHT22;1427;48.510;9.060;2023-07-20T00:47:01;20.10;94.00
2839;DHT22;1427;48.510;9.060;2023-07-20T00:49:29;20.10;94.20
2839;DHT22;1427;48.510;9.060;2023-07-20T00:51:58;20.10;94.10
2839;DHT22;1427;48.510;9.060;2023-07-20T00:54:26;20.00;94.30
2839;DHT22;1427;48.510;9.060;2023-07-20T00:56:55;19.90;94.50
2839;DHT22;1427;48.510;9.060;2023-07-20T00:59:23;19.90;94.40
2839;DHT22;1427;48.510;9.060;2023-07-20T01:01:52;20.00;94.50
2839;DHT22;1427;48.510;9.060;2023-07-20T01:04:20;19.90;94.50
2839;DHT22;1427;48.510;9.060;2023-07-20T01:06:56;19.90;94.60
2839;DHT22;1427;48.510;9.060;2023-07-20T01:09:31;19.90;94.70
2839;DHT22;1427;48.510;9.060;2023-07-20T01:12:04;19.90;94.90
2839;DHT22;1427;48.510;9.060;2023-07-20T01:14:34;19.80;94.90
2839;DHT22;1427;48.510;9.060;2023-07-20T01:17:03;19.80;95.20
2839;DHT22;1427;48.510;9.060;2023-07-20T01:19:33;19.70;95.10
2839;DHT22;1427;48.510;9.060;2023-07-20T01:22:03;19.70;95.30
2839;DHT22;1427;48.510;9.060;2023-07-20T01:25:02;19.70;95.40
2839;DHT22;1427;48.510;9.060;2023-07-20T01:27:51;19.60;95.70
2839;DHT22;1427;48.510;9.060;2023-07-20T01:30:43;19.60;95.60
2839;DHT22;1427;48.510;9.060;2023-07-20T01:33:16;19.60;95.80
2839;DHT22;1427;48.510;9.060;2023-07-20T01:35:48;19.60;96.00
2839;DHT22;1427;48.510;9.060;2023-07-20T01:38:18;19.80;96.00
2839;DHT22;1427;48.510;9.060;2023-07-20T01:40:47;19.50;96.00
2839;DHT22;1427;48.510;9.060;2023-07-20T01:43:16;19.50;95.80
2839;DHT22;1427;48.510;9.060;2023-07-20T01:45:44;19.60;95.90
2839;DHT22;1427;48.510;9.060;2023-07-20T01:48:12;19.50;95.90
2839;DHT22;1427;48.510;9.060;2023-07-20T01:50:42;19.30;96.30
2839;DHT22;1427;48.510;9.060;2023-07-20T01:53:10;19.30;96.50
2839;DHT22;1427;48.510;9.060;2023-07-20T01:55:38;19.20;96.40
2839;DHT22;1427;48.510;9.060;2023-07-20T01:58:06;19.30;96.20
2839;DHT22;1427;48.510;9.060;2023-07-20T02:00:34;19.40;95.80
2839;DHT22;1427;48.510;9.060;2023-07-20T02:03:04;19.40;95.90
2839;DHT22;1427;48.510;9.060;2023-07-20T02:05:32;19.50;96.00
2839;DHT22;1427;48.510;9.060;2023-07-20T02:08:01;19.20;95.90
2839;DHT22;1427;48.510;9.060;2023-07-20T02:10:29;19.10;96.10
2839;DHT22;1427;48.510;9.060;2023-07-20T02:12:57;19.10;96.30
2839;DHT22;1427;48.510;9.060;2023-07-20T02:15:25;19.10;96.30
2839;DHT22;1427;48.510;9.060;2023-07-20T02:17:54;19.10;96.70
2839;DHT22;1427;48.510;9.060;2023-07-20T02:20:22;19.10;96.70
2839;DHT22;1427;48.510;9.060;2023-07-20T02:22:50;19.10;96.40
2839;DHT22;1427;48.510;9.060;2023-07-20T02:25:20;19.00;96.60
2839;DHT22;1427;48.510;9.060;2023-07-20T02:27:48;19.00;96.50
2839;DHT22;1427;48.510;9.060;2023-07-20T02:30:16;19.10;96.60
2839;DHT22;1427;48.510;9.060;2023-07-20T02:32:44;19.00;96.40
2839;DHT22;1427;48.510;9.060;2023-07-20T02:35:15;19.00;96.40
2839;DHT22;1427;48.510;9.060;2023-07-20T02:37:43;19.00;96.50
2839;DHT22;1427;48.510;9.060;2023-07-20T02:40:12;19.00;96.60
2839;DHT22;1427;48.510;9.060;2023-07-20T02:42:41;19.00;96.60
2839;DHT22;1427;48.510;9.060;2023-07-20T02:45:10;18.90;96.60
2839;DHT22;1427;48.510;9.060;2023-07-20T02:47:38;18.90;96.60
2839;DHT22;1427;48.510;9.060;2023-07-20T02:50:09;19.00;96.40
2839;DHT22;1427;48.510;9.060;2023-07-20T02:52:40;18.80;96.10
2839;DHT22;1427;48.510;9.060;2023-07-20T02:55:08;18.70;96.30
2839;DHT22;1427;48.510;9.060;2023-07-20T02:57:37;18.70;96.40
2839;DHT22;1427;48.510;9.060;2023-07-20T03:00:07;18.50;96.40
2839;DHT22;1427;48.510;9.060;2023-07-20T03:02:35;18.50;96.50
2839;DHT22;1427;48.510;9.060;2023-07-20T03:05:04;18.30;96.70
2839;DHT22;1427;48.510;9.060;2023-07-20T03:07:34;18.30;96.80
2839;DHT22;1427;48.510;9.060;2023-07-20T03:10:02;18.20;97.00
2839;DHT22;1427;48.510;9.060;2023-07-20T03:12:30;18.20;97.10
2839;DHT22;1427;48.510;9.060;2023-07-20T03:15:00;18.20;97.10
2839;DHT22;1427;48.510;9.060;2023-07-20T03:17:29;18.10;97.40
2839;DHT22;1427;48.510;9.060;2023-07-20T03:19:57;18.10;97.50
2839;DHT22;1427;48.510;9.060;2023-07-20T03:22:26;18.10;97.50
2839;DHT22;1427;48.510;9.060;2023-07-20T03:24:54;18.10;97.60
2839;DHT22;1427;48.510;9.060;2023-07-20T03:27:22;18.10;97.70
2839;DHT22;1427;48.510;9.060;2023-07-20T03:29:51;18.10;97.60
2839;DHT22;1427;48.510;9.060;2023-07-20T03:32:19;18.10;97.40
2839;DHT22;1427;48.510;9.060;2023-07-20T03:34:48;18.10;97.70
2839;DHT22;1427;48.510;9.060;2023-07-20T03:37:16;18.00;97.80
2839;DHT22;1427;48.510;9.060;2023-07-20T03:39:44;17.90;97.80
2839;DHT22;1427;48.510;9.060;2023-07-20T03:42:12;18.00;97.80
2839;DHT22;1427;48.510;9.060;2023-07-20T03:44:40;17.90;97.70
2839;DHT22;1427;48.510;9.060;2023-07-20T03:47:08;17.70;98.00
2839;DHT22;1427;48.510;9.060;2023-07-20T03:49:36;17.70;98.00
2839;DHT22;1427;48.510;9.060;2023-07-20T03:52:06;17.70;98.10
2839;DHT22;1427;48.510;9.060;2023-07-20T03:54:34;17.60;98.20
2839;DHT22;1427;48.510;9.060;2023-07-20T03:57:02;17.60;98.20
2839;DHT22;1427;48.510;9.060;2023-07-20T03:59:30;17.60;98.30
2839;DHT22;1427;48.510;9.060;2023-07-20T04:02:03;17.50;98.50
2839;DHT22;1427;48.510;9.060;2023-07-20T04:04:33;17.50;98.50
2839;DHT22;1427;48.510;9.060;2023-07-20T04:07:01;17.50;98.70
2839;DHT22;1427;48.510;9.060;2023-07-20T04:09:31;17.50;98.70
2839;DHT22;1427;48.510;9.060;2023-07-20T04:12:00;17.50;98.90
2839;DHT22;1427;48.510;9.060;2023-07-20T04:14:28;17.50;98.80
2839;DHT22;1427;48.510;9.060;2023-07-20T04:16:56;17.50;99.00
2839;DHT22;1427;48.510;9.060;2023-07-20T04:19:24;17.50;98.90
2839;DHT22;1427;48.510;9.060;2023-07-20T04:21:52;17.60;99.00
2839;DHT22;1427;48.510;9.060;2023-07-20T04:24:20;17.50;98.90
2839;DHT22;1427;48.510;9.060;2023-07-20T04:26:50;17.50;99.00
2839;DHT22;1427;48.510;9.060;2023-07-20T04:29:18;17.50;99.00
2839;DHT22;1427;48.510;9.060;2023-07-20T04:31:46;17.60;98.90
2839;DHT22;1427;48.510;9.060;2023-07-20T04:34:14;17.60;98.90
2839;DHT22;1427;48.510;9.060;2023-07-20T04:36:43;17.80;99.00
2839;DHT22;1427;48.510;9.060;2023-07-20T04:39:13;17.70;99.00
2839;DHT22;1427;48.510;9.060;2023-07-20T04:41:58;17.50;99.30
2839;DHT22;1427;48.510;9.060;2023-07-20T04:44:27;17.50;99.60
2839;DHT22;1427;48.510;9.060;2023-07-20T04:46:55;17.50;99.80
2839;DHT22;1427;48.510;9.060;2023-07-20T04:49:23;17.60;99.80
2839;DHT22;1427;48.510;9.060;2023-07-20T04:51:51;17.60;99.90
2839;DHT22;1427;48.510;9.060;2023-07-20T04:54:19;17.60;99.90
2839;DHT22;1427;48.510;9.060;2023-07-20T04:56:47;17.60;99.80
2839;DHT22;1427;48.510;9.060;2023-07-20T04:59:18;17.60;99.90
2839;DHT22;1427;48.510;9.060;2023-07-20T05:01:47;17.70;99.90
2839;DHT22;1427;48.510;9.060;2023-07-20T05:04:15;17.70;99.90
2839;DHT22;1427;48.510;9.060;2023-07-20T05:06:45;17.60;99.90
2839;DHT22;1427;48.510;9.060;2023-07-20T05:09:13;17.80;99.90
2839;DHT22;1427;48.510;9.060;2023-07-20T05:11:41;17.90;99.90
2839;DHT22;1427;48.510;9.060;2023-07-20T05:14:11;17.70;99.90
2839;DHT22;1427;48.510;9.060;2023-07-20T05:16:41;17.80;99.90
2839;DHT22;1427;48.510;9.060;2023-07-20T05:19:09;17.90;99.90
2839;DHT22;1427;48.510;9.060;2023-07-20T05:21:37;17.80;99.90
2839;DHT22;1427;48.510;9.060;2023-07-20T05:24:06;17.70;99.90
2839;DHT22;1427;48.510;9.060;2023-07-20T05:26:34;17.60;99.90
2839;DHT22;1427;48.510;9.060;2023-07-20T05:29:02;17.70;99.90
2839;DHT22;1427;48.510;9.060;2023-07-20T05:31:30;17.80;99.90
2839;DHT22;1427;48.510;9.060;2023-07-20T05:34:00;18.00;99.90
2839;DHT22;1427;48.510;9.060;2023-07-20T05:36:29;17.90;99.90
2839;DHT22;1427;48.510;9.060;2023-07-20T05:38:58;17.90;99.90
2839;DHT22;1427;48.510;9.060;2023-07-20T05:41:26;17.90;99.90
2839;DHT22;1427;48.510;9.060;2023-07-20T05:43:54;17.90;99.90
2839;DHT22;1427;48.510;9.060;2023-07-20T05:46:22;17.90;99.90
2839;DHT22;1427;48.510;9.060;2023-07-20T05:48:52;18.00;99.90
2839;DHT22;1427;48.510;9.060;2023-07-20T05:51:22;18.00;99.90
2839;DHT22;1427;48.510;9.060;2023-07-20T05:53:50;18.10;99.90
2839;DHT22;1427;48.510;9.060;2023-07-20T05:56:18;18.40;99.60
2839;DHT22;1427;48.510;9.060;2023-07-20T05:58:46;18.30;99.80
2839;DHT22;1427;48.510;9.060;2023-07-20T06:01:14;18.50;99.70
2839;DHT22;1427;48.510;9.060;2023-07-20T06:03:43;18.50;99.20
2839;DHT22;1427;48.510;9.060;2023-07-20T06:06:11;18.60;98.90
2839;DHT22;1427;48.510;9.060;2023-07-20T06:08:41;18.80;99.40
2839;DHT22;1427;48.510;9.060;2023-07-20T06:11:10;18.60;99.20
2839;DHT22;1427;48.510;9.060;2023-07-20T06:13:38;18.80;99.10
2839;DHT22;1427;48.510;9.060;2023-07-20T06:16:06;18.80;99.20
2839;DHT22;1427;48.510;9.060;2023-07-20T06:18:34;18.90;98.20
2839;DHT22;1427;48.510;9.060;2023-07-20T06:21:02;18.90;98.40
2839;DHT22;1427;48.510;9.060;2023-07-20T06:23:30;19.00;98.60
2839;DHT22;1427;48.510;9.060;2023-07-20T06:26:00;19.10;98.80
2839;DHT22;1427;48.510;9.060;2023-07-20T06:28:28;19.10;98.10
2839;DHT22;1427;48.510;9.060;2023-07-20T06:30:59;19.10;97.80
2839;DHT22;1427;48.510;9.060;2023-07-20T06:33:28;19.10;98.10
2839;DHT22;1427;48.510;9.060;2023-07-20T06:35:56;19.20;98.10
2839;DHT22;1427;48.510;9.060;2023-07-20T06:38:24;19.40;98.10
2839;DHT22;1427;48.510;9.060;2023-07-20T06:40:55;19.50;98.40
2839;DHT22;1427;48.510;9.060;2023-07-20T06:43:25;19.60;98.40
2839;DHT22;1427;48.510;9.060;2023-07-20T06:45:55;19.70;98.40
2839;DHT22;1427;48.510;9.060;2023-07-20T06:48:23;19.70;97.90
2839;DHT22;1427;48.510;9.060;2023-07-20T06:50:51;19.80;97.80
2839;DHT22;1427;48.510;9.060;2023-07-20T06:53:20;19.90;97.70
2839;DHT22;1427;48.510;9.060;2023-07-20T06:55:48;20.00;97.30
2839;DHT22;1427;48.510;9.060;2023-07-20T06:58:17;20.30;97.00
2839;DHT22;1427;48.510;9.060;2023-07-20T07:00:47;20.50;97.10
2839;DHT22;1427;48.510;9.060;2023-07-20T07:03:15;20.30;97.00
2839;DHT22;1427;48.510;9.060;2023-07-20T07:05:43;20.40;96.90
2839;DHT22;1427;48.510;9.060;2023-07-20T07:08:16;20.60;96.90
2839;DHT22;1427;48.510;9.060;2023-07-20T07:10:44;20.80;96.60
2839;DHT22;1427;48.510;9.060;2023-07-20T07:13:12;20.70;96.10
2839;DHT22;1427;48.510;9.060;2023-07-20T07:15:40;20.70;96.50
2839;DHT22;1427;48.510;9.060;2023-07-20T07:18:12;20.60;96.60
2839;DHT22;1427;48.510;9.060;2023-07-20T07:20:40;20.70;96.50
2839;DHT22;1427;48.510;9.060;2023-07-20T07:23:07;20.80;96.70
2839;DHT22;1427;48.510;9.060;2023-07-20T07:25:36;20.90;96.50
2839;DHT22;1427;48.510;9.060;2023-07-20T07:28:04;21.00;96.20
2839;DHT22;1427;48.510;9.060;2023-07-20T07:30:32;21.10;96.10
2839;DHT22;1427;48.510;9.060;2023-07-20T07:33:00;21.00;96.00
2839;DHT22;1427;48.510;9.060;2023-07-20T07:35:30;20.90;96.00
2839;DHT22;1427;48.510;9.060;2023-07-20T07:37:58;21.10;96.10
2839;DHT22;1427;48.510;9.060;2023-07-20T07:40:46;21.30;96.30
2839;DHT22;1427;48.510;9.060;2023-07-20T07:43:14;21.30;96.00
2839;DHT22;1427;48.510;9.060;2023-07-20T07:45:42;21.40;95.60
2839;DHT22;1427;48.510;9.060;2023-07-20T07:48:10;21.50;96.00
2839;DHT22;1427;48.510;9.060;2023-07-20T07:50:40;21.40;95.80
2839;DHT22;1427;48.510;9.060;2023-07-20T07:53:08;21.50;95.50
2839;DHT22;1427;48.510;9.060;2023-07-20T07:55:37;21.70;95.60
2839;DHT22;1427;48.510;9.060;2023-07-20T07:58:05;21.70;95.10
2839;DHT22;1427;48.510;9.060;2023-07-20T08:00:33;21.90;94.80
2839;DHT22;1427;48.510;9.060;2023-07-20T08:03:01;22.00;94.80
2839;DHT22;1427;48.510;9.060;2023-07-20T08:05:29;22.40;94.80
2839;DHT22;1427;48.510;9.060;2023-07-20T08:07:58;22.80;94.10
2839;DHT22;1427;48.510;9.060;2023-07-20T08:10:26;22.90;94.10
2839;DHT22;1427;48.510;9.060;2023-07-20T08:12:54;22.90;93.60
2839;DHT22;1427;48.510;9.060;2023-07-20T08:15:22;23.00;94.00
2839;DHT22;1427;48.510;9.060;2023-07-20T08:17:50;23.00;93.80
2839;DHT22;1427;48.510;9.060;2023-07-20T08:20:19;23.00;93.20
2839;DHT22;1427;48.510;9.060;2023-07-20T08:22:54;23.00;93.00
2839;DHT22;1427;48.510;9.060;2023-07-20T08:25:24;22.90;93.00
2839;DHT22;1427;48.510;9.060;2023-07-20T08:27:52;22.70;93.30
2839;DHT22;1427;48.510;9.060;2023-07-20T08:30:21;22.50;93.20
2839;DHT22;1427;48.510;9.060;2023-07-20T08:32:50;22.40;93.20
2839;DHT22;1427;48.510;9.060;2023-07-20T08:35:18;22.40;93.40
2839;DHT22;1427;48.510;9.060;2023-07-20T08:37:48;22.40;93.70
2839;DHT22;1427;48.510;9.060;2023-07-20T08:40:16;22.40;93.60
2839;DHT22;1427;48.510;9.060;2023-07-20T08:42:46;22.60;93.90
2839;DHT22;1427;48.510;9.060;2023-07-20T08:45:16;22.90;93.40
2839;DHT22;1427;48.510;9.060;2023-07-20T08:47:45;23.10;93.00
2839;DHT22;1427;48.510;9.060;2023-07-20T08:50:15;23.10;92.70
2839;DHT22;1427;48.510;9.060;2023-07-20T08:52:44;23.40;92.70
2839;DHT22;1427;48.510;9.060;2023-07-20T08:55:13;23.60;92.40
2839;DHT22;1427;48.510;9.060;2023-07-20T08:57:41;23.70;91.80
2839;DHT22;1427;48.510;9.060;2023-07-20T09:00:15;23.80;92.10
2839;DHT22;1427;48.510;9.060;2023-07-20T09:02:45;23.90;93.70
2839;DHT22;1427;48.510;9.060;2023-07-20T09:05:14;24.10;90.90
2839;DHT22;1427;48.510;9.060;2023-07-20T09:07:42;23.90;90.70
2839;DHT22;1427;48.510;9.060;2023-07-20T09:10:10;23.70;90.80
2839;DHT22;1427;48.510;9.060;2023-07-20T09:12:41;23.80;91.10
2839;DHT22;1427;48.510;9.060;2023-07-20T09:15:10;23.90;90.80
2839;DHT22;1427;48.510;9.060;2023-07-20T09:17:45;24.20;90.60
2839;DHT22;1427;48.510;9.060;2023-07-20T09:20:16;24.20;90.20
2839;DHT22;1427;48.510;9.060;2023-07-20T09:22:48;24.20;89.50
2839;DHT22;1427;48.510;9.060;2023-07-20T09:25:18;24.20;90.50
2839;DHT22;1427;48.510;9.060;2023-07-20T09:27:49;24.40;90.20
2839;DHT22;1427;48.510;9.060;2023-07-20T09:30:18;24.30;88.30
2839;DHT22;1427;48.510;9.060;2023-07-20T09:32:48;24.20;88.60
2839;DHT22;1427;48.510;9.060;2023-07-20T09:35:22;23.70;86.20
2839;DHT22;1427;48.510;9.060;2023-07-20T09:37:55;23.50;86.80
2839;DHT22;1427;48.510;9.060;2023-07-20T09:40:28;23.70;89.20
2839;DHT22;1427;48.510;9.060;2023-07-20T09:42:59;24.20;87.00
2839;DHT22;1427;48.510;9.060;2023-07-20T09:45:33;24.10;85.60
2839;DHT22;1427;48.510;9.060;2023-07-20T09:48:08;23.90;86.00
2839;DHT22;1427;48.510;9.060;2023-07-20T09:50:40;24.00;84.00
2839;DHT22;1427;48.510;9.060;2023-07-20T09:53:12;24.00;84.30
2839;DHT22;1427;48.510;9.060;2023-07-20T09:55:41;24.00;84.10
2839;DHT22;1427;48.510;9.060;2023-07-20T09:58:11;24.10;82.80
2839;DHT22;1427;48.510;9.060;2023-07-20T10:00:41;24.20;83.20
2839;DHT22;1427;48.510;9.060;2023-07-20T10:03:18;24.30;82.60
2839;DHT22;1427;48.510;9.060;2023-07-20T10:05:52;24.60;83.10
2839;DHT22;1427;48.510;9.060;2023-07-20T10:08:24;24.60;82.20
2839;DHT22;1427;48.510;9.060;2023-07-20T10:10:57;24.60;81.90
2839;DHT22;1427;48.510;9.060;2023-07-20T10:13:28;24.70;81.60
2839;DHT22;1427;48.510;9.060;2023-07-20T10:16:01;25.20;80.40
2839;DHT22;1427;48.510;9.060;2023-07-20T10:18:46;25.30;78.70
2839;DHT22;1427;48.510;9.060;2023-07-20T10:21:20;25.40;77.90
2839;DHT22;1427;48.510;9.060;2023-07-20T10:23:53;25.40;77.90
2839;DHT22;1427;48.510;9.060;2023-07-20T10:26:25;25.30;77.90
2839;DHT22;1427;48.510;9.060;2023-07-20T10:28:54;25.10;78.50
2839;DHT22;1427;48.510;9.060;2023-07-20T10:31:23;25.20;79.80
2839;DHT22;1427;48.510;9.060;2023-07-20T10:33:53;25.30;76.20
2839;DHT22;1427;48.510;9.060;2023-07-20T10:36:25;25.50;75.50
2839;DHT22;1427;48.510;9.060;2023-07-20T10:38:57;25.50;73.50
2839;DHT22;1427;48.510;9.060;2023-07-20T10:41:28;25.40;73.00
2839;DHT22;1427;48.510;9.060;2023-07-20T10:44:01;25.00;75.00
2839;DHT22;1427;48.510;9.060;2023-07-20T10:46:41;25.30;75.90
2839;DHT22;1427;48.510;9.060;2023-07-20T10:49:11;25.80;74.90
2839;DHT22;1427;48.510;9.060;2023-07-20T10:51:42;26.30;74.80
2839;DHT22;1427;48.510;9.060;2023-07-20T10:54:49;26.40;73.80
2839;DHT22;1427;48.510;9.060;2023-07-20T10:57:38;26.10;73.10
2839;DHT22;1427;48.510;9.060;2023-07-20T11:00:09;26.10;73.50
2839;DHT22;1427;48.510;9.060;2023-07-20T11:02:45;26.10;73.50
2839;DHT22;1427;48.510;9.060;2023-07-20T11:05:37;25.80;74.00
2839;DHT22;1427;48.510;9.060;2023-07-20T11:08:10;25.90;73.90
2839;DHT22;1427;48.510;9.060;2023-07-20T11:10:39;25.90;74.60
2839;DHT22;1427;48.510;9.060;2023-07-20T11:13:21;26.20;76.20
2839;DHT22;1427;48.510;9.060;2023-07-20T11:16:02;25.90;73.00
2839;DHT22;1427;48.510;9.060;2023-07-20T11:18:34;25.60;73.00
2839;DHT22;1427;48.510;9.060;2023-07-20T11:21:11;25.50;73.20
2839;DHT22;1427;48.510;9.060;2023-07-20T11:23:39;25.60;73.10
2839;DHT22;1427;48.510;9.060;2023-07-20T11:26:08;25.60;72.20
2839;DHT22;1427;48.510;9.060;2023-07-20T11:28:36;25.90;73.20
2839;DHT22;1427;48.510;9.060;2023-07-20T11:31:04;26.10;71.60
2839;DHT22;1427;48.510;9.060;2023-07-20T11:33:32;26.10;71.30
2839;DHT22;1427;48.510;9.060;2023-07-20T11:36:00;25.90;70.80
2839;DHT22;1427;48.510;9.060;2023-07-20T11:38:30;25.90;73.20
2839;DHT22;1427;48.510;9.060;2023-07-20T11:40:58;26.10;71.00
2839;DHT22;1427;48.510;9.060;2023-07-20T11:43:26;26.40;72.50
2839;DHT22;1427;48.510;9.060;2023-07-20T11:45:55;26.40;70.60
2839;DHT22;1427;48.510;9.060;2023-07-20T11:48:23;26.20;71.40
2839;DHT22;1427;48.510;9.060;2023-07-20T11:50:51;26.20;72.00
2839;DHT22;1427;48.510;9.060;2023-07-20T11:53:19;26.20;68.80
2839;DHT22;1427;48.510;9.060;2023-07-20T11:55:49;26.20;70.20
2839;DHT22;1427;48.510;9.060;2023-07-20T11:58:17;26.30;69.10
2839;DHT22;1427;48.510;9.060;2023-07-20T12:00:45;26.60;71.10
2839;DHT22;1427;48.510;9.060;2023-07-20T12:03:13;26.80;70.60
2839;DHT22;1427;48.510;9.060;2023-07-20T12:05:42;26.90;69.00
2839;DHT22;1427;48.510;9.060;2023-07-20T12:08:27;27.10;69.80
2839;DHT22;1427;48.510;9.060;2023-07-20T12:10:56;27.20;69.50
2839;DHT22;1427;48.510;9.060;2023-07-20T12:13:29;27.10;69.10
2839;DHT22;1427;48.510;9.060;2023-07-20T12:16:08;27.20;69.10
2839;DHT22;1427;48.510;9.060;2023-07-20T12:18:37;27.00;67.70
2839;DHT22;1427;48.510;9.060;2023-07-20T12:21:06;27.00;69.20
2839;DHT22;1427;48.510;9.060;2023-07-20T12:23:35;27.20;72.10
2839;DHT22;1427;48.510;9.060;2023-07-20T12:26:07;27.40;71.10
2839;DHT22;1427;48.510;9.060;2023-07-20T12:28:39;27.50;69.40
2839;DHT22;1427;48.510;9.060;2023-07-20T12:31:08;27.70;69.90
2839;DHT22;1427;48.510;9.060;2023-07-20T12:33:37;27.70;69.10
2839;DHT22;1427;48.510;9.060;2023-07-20T12:36:05;27.80;69.60
2839;DHT22;1427;48.510;9.060;2023-07-20T12:38:33;27.80;68.80
2839;DHT22;1427;48.510;9.060;2023-07-20T12:41:02;27.60;66.20
2839;DHT22;1427;48.510;9.060;2023-07-20T12:43:32;27.60;69.80
2839;DHT22;1427;48.510;9.060;2023-07-20T12:46:00;27.60;67.20
2839;DHT22;1427;48.510;9.060;2023-07-20T12:48:28;27.40;66.60
2839;DHT22;1427;48.510;9.060;2023-07-20T12:50:56;27.20;66.80
2839;DHT22;1427;48.510;9.060;2023-07-20T12:53:24;27.00;66.60
2839;DHT22;1427;48.510;9.060;2023-07-20T12:55:52;26.80;66.40
2839;DHT22;1427;48.510;9.060;2023-07-20T12:58:20;26.50;68.60
2839;DHT22;1427;48.510;9.060;2023-07-20T13:00:49;26.60;67.50
2839;DHT22;1427;48.510;9.060;2023-07-20T13:03:17;26.80;67.70
2839;DHT22;1427;48.510;9.060;2023-07-20T13:05:49;27.00;69.30
2839;DHT22;1427;48.510;9.060;2023-07-20T13:08:20;27.10;70.00
2839;DHT22;1427;48.510;9.060;2023-07-20T13:10:51;27.00;66.10
2839;DHT22;1427;48.510;9.060;2023-07-20T13:13:19;26.90;66.30
2839;DHT22;1427;48.510;9.060;2023-07-20T13:15:49;26.90;66.30
2839;DHT22;1427;48.510;9.060;2023-07-20T13:18:17;26.90;66.50
2839;DHT22;1427;48.510;9.060;2023-07-20T13:20:45;27.00;64.60
2839;DHT22;1427;48.510;9.060;2023-07-20T13:23:13;26.70;64.50
2839;DHT22;1427;48.510;9.060;2023-07-20T13:25:41;26.70;67.00
2839;DHT22;1427;48.510;9.060;2023-07-20T13:28:10;27.00;67.30
2839;DHT22;1427;48.510;9.060;2023-07-20T13:30:39;27.20;65.40
2839;DHT22;1427;48.510;9.060;2023-07-20T13:33:09;27.20;65.60
2839;DHT22;1427;48.510;9.060;2023-07-20T13:35:43;27.40;67.50
2839;DHT22;1427;48.510;9.060;2023-07-20T13:38:14;27.50;64.10
2839;DHT22;1427;48.510;9.060;2023-07-20T13:40:43;27.30;64.20
2839;DHT22;1427;48.510;9.060;2023-07-20T13:43:11;27.40;63.70
2839;DHT22;1427;48.510;9.060;2023-07-20T13:45:39;27.50;65.20
2839;DHT22;1427;48.510;9.060;2023-07-20T13:48:09;27.80;67.40
2839;DHT22;1427;48.510;9.060;2023-07-20T13:50:37;28.00;68.40
2839;DHT22;1427;48.510;9.060;2023-07-20T13:53:25;28.20;66.00
2839;DHT22;1427;48.510;9.060;2023-07-20T13:55:57;28.30;65.70
2839;DHT22;1427;48.510;9.060;2023-07-20T13:58:28;28.30;64.80
2839;DHT22;1427;48.510;9.060;2023-07-20T14:00:57;28.20;63.90
2839;DHT22;1427;48.510;9.060;2023-07-20T14:03:27;28.20;65.30
2839;DHT22;1427;48.510;9.060;2023-07-20T14:05:55;27.90;62.60
2839;DHT22;1427;48.510;9.060;2023-07-20T14:08:26;27.40;62.70
2839;DHT22;1427;48.510;9.060;2023-07-20T14:10:56;27.40;65.50
2839;DHT22;1427;48.510;9.060;2023-07-20T14:13:27;27.60;66.00
2839;DHT22;1427;48.510;9.060;2023-07-20T14:16:12;27.90;67.10
2839;DHT22;1427;48.510;9.060;2023-07-20T14:18:42;27.90;63.40
2839;DHT22;1427;48.510;9.060;2023-07-20T14:21:13;27.50;64.10
2839;DHT22;1427;48.510;9.060;2023-07-20T14:23:45;27.30;64.90
2839;DHT22;1427;48.510;9.060;2023-07-20T14:26:13;27.10;65.20
2839;DHT22;1427;48.510;9.060;2023-07-20T14:28:41;27.00;66.10
2839;DHT22;1427;48.510;9.060;2023-07-20T14:31:09;27.10;66.20
2839;DHT22;1427;48.510;9.060;2023-07-20T14:33:37;27.50;66.40
2839;DHT22;1427;48.510;9.060;2023-07-20T14:36:07;27.50;62.70
2839;DHT22;1427;48.510;9.060;2023-07-20T14:38:37;27.30;61.80
2839;DHT22;1427;48.510;9.060;2023-07-20T14:41:07;27.20;65.60
2839;DHT22;1427;48.510;9.060;2023-07-20T14:43:35;27.40;67.70
2839;DHT22;1427;48.510;9.060;2023-07-20T14:46:03;27.50;66.50
2839;DHT22;1427;48.510;9.060;2023-07-20T14:48:31;27.60;65.60
2839;DHT22;1427;48.510;9.060;2023-07-20T14:50:59;27.80;64.90
2839;DHT22;1427;48.510;9.060;2023-07-20T14:53:32;27.90;65.10
2839;DHT22;1427;48.510;9.060;2023-07-20T14:56:03;27.90;65.60
2839;DHT22;1427;48.510;9.060;2023-07-20T14:58:32;27.90;66.00
2839;DHT22;1427;48.510;9.060;2023-07-20T15:01:01;27.70;65.20
2839;DHT22;1427;48.510;9.060;2023-07-20T15:03:30;27.40;64.80
2839;DHT22;1427;48.510;9.060;2023-07-20T15:05:58;27.20;63.70
2839;DHT22;1427;48.510;9.060;2023-07-20T15:08:26;27.00;64.20
2839;DHT22;1427;48.510;9.060;2023-07-20T15:10:56;27.10;66.70
2839;DHT22;1427;48.510;9.060;2023-07-20T15:13:24;27.20;66.60
2839;DHT22;1427;48.510;9.060;2023-07-20T15:15:54;27.40;65.80
2839;DHT22;1427;48.510;9.060;2023-07-20T15:18:23;27.60;65.30
2839;DHT22;1427;48.510;9.060;2023-07-20T15:21:07;27.60;64.90
2839;DHT22;1427;48.510;9.060;2023-07-20T15:23:35;27.60;66.10
2839;DHT22;1427;48.510;9.060;2023-07-20T15:26:06;27.70;64.80
2839;DHT22;1427;48.510;9.060;2023-07-20T15:28:34;27.60;66.20
2839;DHT22;1427;48.510;9.060;2023-07-20T15:31:03;27.50;64.30
2839;DHT22;1427;48.510;9.060;2023-07-20T15:33:31;27.40;65.10
2839;DHT22;1427;48.510;9.060;2023-07-20T15:36:00;27.20;63.50
2839;DHT22;1427;48.510;9.060;2023-07-20T15:38:28;27.20;64.10
2839;DHT22;1427;48.510;9.060;2023-07-20T15:40:56;27.10;65.60
2839;DHT22;1427;48.510;9.060;2023-07-20T15:43:29;27.10;65.50
2839;DHT22;1427;48.510;9.060;2023-07-20T15:46:04;27.10;65.80
2839;DHT22;1427;48.510;9.060;2023-07-20T15:48:39;27.00;65.40
2839;DHT22;1427;48.510;9.060;2023-07-20T15:51:09;27.00;66.40
2839;DHT22;1427;48.510;9.060;2023-07-20T15:53:37;27.00;66.60
2839;DHT22;1427;48.510;9.060;2023-07-20T15:56:05;27.10;66.50
2839;DHT22;1427;48.510;9.060;2023-07-20T15:58:34;27.00;66.00
2839;DHT22;1427;48.510;9.060;2023-07-20T16:01:02;26.80;64.70
2839;DHT22;1427;48.510;9.060;2023-07-20T16:03:30;26.70;65.00
2839;DHT22;1427;48.510;9.060;2023-07-20T16:06:01;26.70;64.90
2839;DHT22;1427;48.510;9.060;2023-07-20T16:08:30;26.70;66.90
2839;DHT22;1427;48.510;9.060;2023-07-20T16:10:58;26.60;66.50
2839;DHT22;1427;48.510;9.060;2023-07-20T16:13:27;26.70;67.40
2839;DHT22;1427;48.510;9.060;2023-07-20T16:15:56;26.60;68.00
2839;DHT22;1427;48.510;9.060;2023-07-20T16:18:24;26.60;68.50
2839;DHT22;1427;48.510;9.060;2023-07-20T16:20:52;26.70;68.10